Time;durP1;ratioP1;P1;durP2;ratioP2;P2;SDS_P1;SDS_P2;PMS_P1;PMS_P2;Temp;Humidity;BMP_temperature;BMP_pressure;BME280_temperature;BME280_humidity;BME280_pressure;Samples;Min_cycle;Max_cycle;Signal;HPM_P1;HPM_P2
2022/09/17 00:02:34;;;;;;;3.67;0.80;;;21.90;92.80;;;;;;5083220;28;20213;-80
2022/09/17 00:05:04;;;;;;;2.28;0.88;;;22.00;93.30;;;;;;5091898;28;20259;-80
2022/09/17 00:07:35;;;;;;;4.50;0.73;;;21.90;91.10;;;;;;5090836;28;20195;-80
2022/09/17 00:10:06;;;;;;;2.58;0.60;;;21.90;91.50;;;;;;5091032;28;20722;-80
2022/09/17 00:12:37;;;;;;;1.92;0.80;;;22.10;92.90;;;;;;5092312;28;20200;-80
2022/09/17 00:15:08;;;;;;;3.75;0.90;;;22.30;90.80;;;;;;5075288;28;20203;-81
2022/09/17 00:17:41;;;;;;;3.03;0.70;;;22.30;89.50;;;;;;5087248;28;20270;-80
2022/09/17 00:20:12;;;;;;;2.13;0.80;;;22.30;89.30;;;;;;5078316;28;20557;-81
2022/09/17 00:22:43;;;;;;;1.95;0.80;;;22.20;88.60;;;;;;5091015;28;20199;-81
2022/09/17 00:25:14;;;;;;;1.35;0.70;;;22.30;87.60;;;;;;5092587;28;20192;-81
2022/09/17 00:27:45;;;;;;;2.15;0.90;;;22.40;87.80;;;;;;5090424;28;20199;-81
2022/09/17 00:30:16;;;;;;;1.98;0.63;;;22.40;86.50;;;;;;5092119;28;20253;-81
2022/09/17 00:32:48;;;;;;;1.35;0.70;;;22.50;85.40;;;;;;5080334;28;20188;-81
2022/09/17 00:35:20;;;;;;;2.42;0.85;;;22.60;86.10;;;;;;5090749;28;20211;-81
2022/09/17 00:37:50;;;;;;;1.38;0.60;;;22.70;81.10;;;;;;5078920;28;20195;-81
2022/09/17 00:40:21;;;;;;;2.47;0.73;;;22.60;82.90;;;;;;5091290;28;20261;-80
2022/09/17 00:42:53;;;;;;;3.35;0.70;;;22.80;81.80;;;;;;5091995;28;20665;-80
2022/09/17 00:45:24;;;;;;;3.30;0.93;;;22.90;83.60;;;;;;5084932;28;20202;-80
2022/09/17 00:47:59;;;;;;;1.88;0.70;;;23.10;80.10;;;;;;5072514;28;20207;-80
2022/09/17 00:50:33;;;;;;;3.08;0.90;;;23.10;76.00;;;;;;5079867;28;20259;-80
2022/09/17 00:53:08;;;;;;;1.92;0.70;;;23.10;75.80;;;;;;5086469;28;20192;-80
2022/09/17 00:55:41;;;;;;;1.55;0.80;;;23.20;74.80;;;;;;5087100;28;20230;-80
2022/09/17 00:58:15;;;;;;;1.52;0.63;;;23.20;74.90;;;;;;5080895;28;20223;-81
2022/09/17 01:00:46;;;;;;;4.15;0.95;;;23.30;77.00;;;;;;5084836;28;20597;-80
2022/09/17 01:03:19;;;;;;;3.10;0.80;;;23.20;75.20;;;;;;5087391;28;20563;-81
2022/09/17 01:05:58;;;;;;;2.55;0.60;;;23.00;76.70;;;;;;5090358;28;20580;-79
2022/09/17 01:08:36;;;;;;;1.20;0.60;;;22.90;79.60;;;;;;5091147;28;20662;-79
2022/09/17 01:11:37;;;;;;;2.88;0.75;;;22.70;78.40;;;;;;5084440;28;20253;-79
2022/09/17 01:14:23;;;;;;;2.58;0.80;;;22.70;80.80;;;;;;5076021;28;20212;-79
2022/09/17 01:17:01;;;;;;;2.70;0.80;;;22.50;82.60;;;;;;5079001;28;20187;-78
2022/09/17 01:20:03;;;;;;;1.65;0.75;;;22.30;86.70;;;;;;5080869;28;20246;-81
2022/09/17 01:22:42;;;;;;;1.75;0.77;;;22.20;93.30;;;;;;5083911;28;20676;-81
2022/09/17 01:25:24;;;;;;;4.38;0.80;;;22.10;95.80;;;;;;5091113;28;20194;-79
2022/09/17 01:28:31;;;;;;;3.20;0.80;;;21.80;99.90;;;;;;5080014;28;20188;-79
2022/09/17 01:31:29;;;;;;;3.45;0.90;;;21.50;99.90;;;;;;5089314;28;20297;-80
2022/09/17 01:34:07;;;;;;;2.65;0.90;;;21.20;99.90;;;;;;5089472;28;20245;-79
2022/09/17 01:36:55;;;;;;;1.90;0.80;;;21.20;99.90;;;;;;5070176;28;20203;-79
2022/09/17 01:39:36;;;;;;;3.38;0.90;;;21.20;99.90;;;;;;5084714;28;20704;-80
2022/09/17 01:42:16;;;;;;;2.33;0.80;;;21.30;99.90;;;;;;5080268;28;20206;-79
2022/09/17 01:44:55;;;;;;;2.53;0.70;;;21.50;99.90;;;;;;5083258;28;20586;-80
2022/09/17 01:47:33;;;;;;;3.65;1.20;;;21.70;99.90;;;;;;5078986;28;20191;-79
2022/09/17 01:50:07;;;;;;;2.17;1.08;;;21.80;99.90;;;;;;5071088;28;20231;-80
2022/09/17 01:52:40;;;;;;;3.38;0.80;;;21.80;99.90;;;;;;5082766;28;20238;-80
2022/09/17 01:55:14;;;;;;;2.22;0.65;;;21.80;99.90;;;;;;5091714;28;20215;-80
2022/09/17 01:57:49;;;;;;;1.80;0.80;;;22.00;99.90;;;;;;5090226;28;20199;-80
2022/09/17 02:00:20;;;;;;;2.38;0.57;;;22.10;99.90;;;;;;5090350;28;20254;-79
2022/09/17 02:02:56;;;;;;;3.97;0.98;;;22.20;99.90;;;;;;5090207;28;20211;-79
2022/09/17 02:05:31;;;;;;;3.17;0.90;;;22.30;99.90;;;;;;5090737;28;20286;-80
2022/09/17 02:08:07;;;;;;;2.65;1.00;;;22.50;99.90;;;;;;5090174;28;20217;-79
2022/09/17 02:10:41;;;;;;;3.88;0.90;;;22.60;99.90;;;;;;5070276;28;20206;-79
2022/09/17 02:13:16;;;;;;;2.88;1.00;;;22.80;99.90;;;;;;5074992;28;20195;-79
2022/09/17 02:15:51;;;;;;;1.58;0.80;;;22.70;99.90;;;;;;5090627;28;20202;-79
2022/09/17 02:18:31;;;;;;;3.22;1.00;;;22.20;99.90;;;;;;5089892;28;20668;-80
2022/09/17 02:21:08;;;;;;;2.17;0.98;;;21.70;99.90;;;;;;5090184;28;20570;-80
2022/09/17 02:23:46;;;;;;;1.42;0.63;;;21.20;99.90;;;;;;5089811;28;20659;-79
2022/09/17 02:26:21;;;;;;;2.20;0.70;;;21.10;99.90;;;;;;5089284;28;20195;-80
2022/09/17 02:28:55;;;;;;;1.60;0.60;;;21.30;99.90;;;;;;5089950;28;20195;-79
2022/09/17 02:31:26;;;;;;;2.83;0.90;;;21.50;99.90;;;;;;5088374;28;20202;-79
2022/09/17 02:34:03;;;;;;;2.00;0.50;;;21.70;99.90;;;;;;5088370;28;20204;-79
2022/09/17 02:36:34;;;;;;;3.67;1.00;;;22.00;99.90;;;;;;5090193;28;20523;-79
2022/09/17 02:39:06;;;;;;;2.55;0.80;;;22.30;99.90;;;;;;5090288;28;20227;-80
2022/09/17 02:41:47;;;;;;;2.15;0.75;;;22.40;99.90;;;;;;5088917;28;20195;-79
2022/09/17 02:44:27;;;;;;;2.28;0.80;;;22.60;99.90;;;;;;5071697;28;20204;-80
2022/09/17 02:47:21;;;;;;;3.30;0.80;;;22.80;99.90;;;;;;5076741;28;20203;-80
2022/09/17 02:50:15;;;;;;;1.48;0.80;;;23.00;99.90;;;;;;5090198;28;20210;-80
2022/09/17 02:52:56;;;;;;;1.38;0.70;;;23.30;99.90;;;;;;5091010;28;20209;-79
2022/09/17 02:55:33;;;;;;;1.73;0.68;;;23.50;99.90;;;;;;5090513;28;20563;-81
2022/09/17 02:58:14;;;;;;;3.53;0.70;;;23.70;99.90;;;;;;5090013;28;20194;-81
2022/09/17 03:00:45;;;;;;;1.38;0.50;;;23.90;99.90;;;;;;5076057;28;20244;-81
2022/09/17 03:03:21;;;;;;;1.63;0.60;;;23.90;99.90;;;;;;5087879;28;20196;-81
2022/09/17 03:05:55;;;;;;;1.35;0.65;;;23.60;99.50;;;;;;5090349;28;20720;-80
2022/09/17 03:08:34;;;;;;;2.22;0.60;;;23.50;99.70;;;;;;5090199;28;20536;-81
2022/09/17 03:11:05;;;;;;;2.20;0.60;;;23.50;99.40;;;;;;5091946;28;20225;-81
2022/09/17 03:13:36;;;;;;;1.77;0.77;;;23.60;99.20;;;;;;5091588;28;20203;-81
2022/09/17 03:16:07;;;;;;;2.65;0.70;;;23.70;99.90;;;;;;5091399;28;20210;-81
2022/09/17 03:18:38;;;;;;;1.88;0.50;;;23.50;98.90;;;;;;5085296;28;20199;-81
2022/09/17 03:21:11;;;;;;;0.82;0.50;;;23.20;96.90;;;;;;5092904;28;20650;-80
2022/09/17 03:23:42;;;;;;;4.80;0.80;;;23.00;96.10;;;;;;5092413;28;20222;-81
2022/09/17 03:26:12;;;;;;;0.77;0.40;;;22.70;96.20;;;;;;5092350;28;20567;-81
2022/09/17 03:28:43;;;;;;;0.50;0.43;;;22.50;94.50;;;;;;5091517;28;20204;-82
2022/09/17 03:31:14;;;;;;;1.77;0.50;;;22.10;97.50;;;;;;5090533;28;20199;-80
2022/09/17 03:33:44;;;;;;;0.80;0.52;;;21.70;99.90;;;;;;5090809;28;20200;-80
2022/09/17 03:36:18;;;;;;;1.67;0.70;;;21.60;99.90;;;;;;5090444;28;20192;-79
2022/09/17 03:38:48;;;;;;;0.98;0.52;;;21.60;99.90;;;;;;5095306;28;20222;-80
2022/09/17 03:41:19;;;;;;;1.27;0.50;;;21.90;99.90;;;;;;5095016;28;20199;-80
2022/09/17 03:43:50;;;;;;;1.30;0.75;;;21.90;99.90;;;;;;5094821;28;20192;-80
2022/09/17 03:46:21;;;;;;;0.65;0.50;;;21.90;99.90;;;;;;5093799;28;20195;-80
2022/09/17 03:48:52;;;;;;;2.35;0.80;;;22.20;99.90;;;;;;5089724;28;20204;-79
2022/09/17 03:51:24;;;;;;;7.40;0.95;;;22.20;99.90;;;;;;5091728;28;20649;-78
2022/09/17 03:53:55;;;;;;;2.28;0.70;;;22.40;99.90;;;;;;5092495;28;20566;-78
2022/09/17 03:56:26;;;;;;;1.67;0.80;;;22.30;99.90;;;;;;5092832;28;20201;-78
2022/09/17 03:59:00;;;;;;;0.70;0.50;;;22.40;99.90;;;;;;5091997;28;20587;-77
2022/09/17 04:01:31;;;;;;;2.72;1.20;;;22.50;98.50;;;;;;5092317;28;20601;-78
2022/09/17 04:04:02;;;;;;;1.80;1.15;;;22.60;97.70;;;;;;5091906;28;20203;-78
2022/09/17 04:06:35;;;;;;;0.95;0.57;;;22.80;95.70;;;;;;5090875;28;20205;-79
2022/09/17 04:09:06;;;;;;;2.25;0.80;;;22.80;95.70;;;;;;5076587;28;20206;-80
2022/09/17 04:11:37;;;;;;;2.05;0.95;;;22.70;95.10;;;;;;5080624;28;20199;-78
2022/09/17 04:14:07;;;;;;;1.50;0.70;;;22.80;95.10;;;;;;5092766;28;20318;-79
2022/09/17 04:16:38;;;;;;;1.15;0.60;;;22.80;93.70;;;;;;5091950;28;20195;-79
2022/09/17 04:19:09;;;;;;;1.35;0.80;;;22.60;92.20;;;;;;5072650;28;20553;-80
2022/09/17 04:21:42;;;;;;;0.63;0.40;;;22.70;93.30;;;;;;5074205;28;20196;-80
2022/09/17 04:24:16;;;;;;;1.70;0.60;;;22.50;91.20;;;;;;5083477;28;20203;-80
2022/09/17 04:26:46;;;;;;;0.70;0.57;;;22.30;89.60;;;;;;5073180;28;20274;-79
2022/09/17 04:29:17;;;;;;;1.33;0.57;;;22.20;90.60;;;;;;5075497;28;20230;-79
2022/09/17 04:31:48;;;;;;;0.50;0.47;;;22.00;94.80;;;;;;5091949;28;20202;-81
2022/09/17 04:34:19;;;;;;;0.88;0.80;;;22.00;99.90;;;;;;5091719;28;20203;-79
2022/09/17 04:36:51;;;;;;;1.77;0.60;;;22.00;99.90;;;;;;5092843;28;20195;-80
2022/09/17 04:39:22;;;;;;;0.35;0.35;;;22.10;99.20;;;;;;5092296;28;20215;-79
2022/09/17 04:41:54;;;;;;;0.98;0.40;;;22.10;95.60;;;;;;5081789;28;20203;-79
2022/09/17 04:44:25;;;;;;;0.68;0.50;;;22.20;95.30;;;;;;5090257;28;20198;-79
2022/09/17 04:46:55;;;;;;;0.77;0.50;;;22.20;91.80;;;;;;5086041;28;20192;-80
2022/09/17 04:49:28;;;;;;;2.40;0.73;;;22.30;92.30;;;;;;5072026;28;20666;-80
2022/09/17 04:52:01;;;;;;;1.85;0.47;;;22.30;90.50;;;;;;5072576;28;20204;-79
2022/09/17 04:54:32;;;;;;;0.68;0.50;;;22.40;86.90;;;;;;5071502;28;20203;-78
2022/09/17 04:57:02;;;;;;;1.75;0.40;;;22.50;86.00;;;;;;5071733;28;20230;-79
2022/09/17 04:59:33;;;;;;;0.70;0.47;;;22.60;85.90;;;;;;5083681;28;20239;-79
2022/09/17 05:02:04;;;;;;;1.02;0.40;;;22.80;85.80;;;;;;5091971;28;20225;-79
2022/09/17 05:04:34;;;;;;;0.60;0.40;;;22.90;76.50;;;;;;5092104;28;20549;-79
2022/09/17 05:07:07;;;;;;;0.75;0.40;;;23.00;75.90;;;;;;5091763;28;20312;-79
2022/09/17 05:09:38;;;;;;;0.85;0.60;;;22.80;71.90;;;;;;5074285;28;20253;-79
2022/09/17 05:12:09;;;;;;;1.05;0.60;;;22.60;76.00;;;;;;5071334;28;20249;-79
2022/09/17 05:14:40;;;;;;;1.42;0.60;;;22.50;78.10;;;;;;5071468;28;20605;-79
2022/09/17 05:17:11;;;;;;;0.93;0.60;;;22.50;79.10;;;;;;5088506;28;20203;-79
2022/09/17 05:19:41;;;;;;;0.82;0.80;;;22.50;81.30;;;;;;5091594;28;20630;-79
2022/09/17 05:22:14;;;;;;;1.38;0.82;;;22.80;81.10;;;;;;5091288;28;20562;-79
2022/09/17 05:24:44;;;;;;;2.20;1.00;;;22.90;80.40;;;;;;5089994;28;20199;-79
2022/09/17 05:27:16;;;;;;;1.58;1.10;;;22.90;78.50;;;;;;5091315;28;20377;-79
2022/09/17 05:29:46;;;;;;;2.13;0.70;;;22.90;79.00;;;;;;5091508;28;20200;-78
2022/09/17 05:32:17;;;;;;;2.60;0.47;;;23.00;77.00;;;;;;5089381;28;20195;-79
2022/09/17 05:34:49;;;;;;;0.73;0.60;;;23.20;77.50;;;;;;5071006;28;20200;-79
2022/09/17 05:37:21;;;;;;;0.68;0.40;;;23.30;76.10;;;;;;5090994;28;20202;-79
2022/09/17 05:39:52;;;;;;;0.82;0.40;;;23.20;77.30;;;;;;5090465;28;20766;-79
2022/09/17 05:42:23;;;;;;;2.55;0.60;;;23.30;75.50;;;;;;5088430;28;20254;-80
2022/09/17 05:44:53;;;;;;;0.80;0.40;;;23.30;75.00;;;;;;5091099;28;20199;-80
2022/09/17 05:47:24;;;;;;;2.15;0.40;;;23.40;75.50;;;;;;5091026;28;20203;-80
2022/09/17 05:49:55;;;;;;;0.98;0.50;;;23.40;76.10;;;;;;5083805;28;20250;-80
2022/09/17 05:52:29;;;;;;;0.73;0.40;;;23.40;75.10;;;;;;5070540;28;20261;-80
2022/09/17 05:55:00;;;;;;;1.23;0.32;;;23.20;75.80;;;;;;5076480;28;20672;-80
2022/09/17 05:57:32;;;;;;;0.80;0.35;;;22.80;71.80;;;;;;5089029;28;20203;-79
2022/09/17 06:00:03;;;;;;;1.50;0.40;;;22.50;71.60;;;;;;5074939;28;20239;-80
2022/09/17 06:02:34;;;;;;;0.30;0.20;;;22.40;71.90;;;;;;5089950;28;20256;-79
2022/09/17 06:05:05;;;;;;;1.42;0.40;;;22.30;71.30;;;;;;5090499;28;20657;-79
2022/09/17 06:07:38;;;;;;;0.70;0.50;;;22.10;72.20;;;;;;5085160;28;20249;-79
2022/09/17 06:10:09;;;;;;;1.15;0.52;;;22.00;72.80;;;;;;5090431;28;20282;-79
2022/09/17 06:12:40;;;;;;;0.70;0.60;;;21.90;71.80;;;;;;5090403;28;20200;-79
2022/09/17 06:15:13;;;;;;;1.63;0.65;;;21.90;71.20;;;;;;5075123;28;20708;-79
2022/09/17 06:17:44;;;;;;;1.75;0.57;;;21.80;72.80;;;;;;5084279;28;20199;-82
2022/09/17 06:20:15;;;;;;;2.28;0.35;;;21.80;74.60;;;;;;5078457;28;20220;-79
2022/09/17 06:22:47;;;;;;;1.45;0.60;;;22.00;74.00;;;;;;5089031;28;20238;-79
2022/09/17 06:25:18;;;;;;;0.60;0.40;;;21.90;70.70;;;;;;5090334;28;20654;-81
2022/09/17 06:27:49;;;;;;;0.65;0.40;;;21.80;71.30;;;;;;5091017;28;20614;-80
2022/09/17 06:30:19;;;;;;;1.08;0.52;;;21.70;70.10;;;;;;5090583;28;20199;-80
2022/09/17 06:32:50;;;;;;;1.30;0.40;;;21.70;67.80;;;;;;5089670;28;20779;-80
2022/09/17 06:35:21;;;;;;;1.65;0.60;;;21.50;67.90;;;;;;5091432;28;20253;-80
2022/09/17 06:37:54;;;;;;;1.48;0.52;;;21.60;69.90;;;;;;5088106;28;20248;-80
2022/09/17 06:40:24;;;;;;;0.98;0.50;;;21.70;68.10;;;;;;5085719;28;20215;-80
2022/09/17 06:43:00;;;;;;;0.98;0.43;;;22.00;67.90;;;;;;5073229;28;20198;-82
2022/09/17 06:45:31;;;;;;;1.48;0.40;;;21.90;66.10;;;;;;5080472;28;20521;-80
2022/09/17 06:48:06;;;;;;;1.40;0.45;;;21.80;66.60;;;;;;5090593;28;20195;-80
2022/09/17 06:50:37;;;;;;;1.15;0.57;;;21.70;68.20;;;;;;5071877;28;20207;-80
2022/09/17 06:53:11;;;;;;;1.33;0.52;;;21.60;69.90;;;;;;5074812;28;20561;-80
2022/09/17 06:55:41;;;;;;;1.30;0.50;;;21.80;69.80;;;;;;5089841;28;20670;-80
2022/09/17 06:58:12;;;;;;;1.10;0.60;;;22.10;68.80;;;;;;5089759;28;20561;-80
2022/09/17 07:00:43;;;;;;;1.30;0.57;;;22.10;69.80;;;;;;5089644;28;20239;-80
2022/09/17 07:03:14;;;;;;;1.00;0.60;;;22.00;71.20;;;;;;5083510;28;20208;-79
2022/09/17 07:05:46;;;;;;;2.25;0.60;;;21.90;72.20;;;;;;5069082;28;20199;-79
2022/09/17 07:08:22;;;;;;;0.85;0.40;;;21.80;71.10;;;;;;5070301;28;20249;-79
2022/09/17 07:10:52;;;;;;;1.13;0.63;;;21.50;72.00;;;;;;5070868;28;20203;-79
2022/09/17 07:13:25;;;;;;;0.70;0.52;;;21.30;73.80;;;;;;5076611;28;20195;-80
2022/09/17 07:15:56;;;;;;;1.15;0.65;;;21.10;76.20;;;;;;5085018;28;20718;-79
2022/09/17 07:18:27;;;;;;;1.58;0.70;;;20.90;76.80;;;;;;5081252;28;20230;-79
2022/09/17 07:20:59;;;;;;;1.88;0.65;;;20.70;75.50;;;;;;5093400;28;20226;-79
2022/09/17 07:23:33;;;;;;;1.55;0.68;;;20.50;77.10;;;;;;5093502;28;20215;-79
2022/09/17 07:26:05;;;;;;;1.10;0.70;;;20.30;77.40;;;;;;5093819;28;20201;-79
2022/09/17 07:28:36;;;;;;;0.98;0.45;;;20.20;78.60;;;;;;5093409;28;20257;-78
2022/09/17 07:31:07;;;;;;;3.58;0.60;;;20.10;78.50;;;;;;5093049;28;20199;-79
2022/09/17 07:33:39;;;;;;;1.27;0.75;;;20.00;79.70;;;;;;5073220;28;20192;-79
2022/09/17 07:36:11;;;;;;;2.60;0.45;;;20.00;79.80;;;;;;5078058;28;20195;-79
2022/09/17 07:38:44;;;;;;;1.40;0.68;;;19.90;80.40;;;;;;5093532;28;20662;-79
2022/09/17 07:41:20;;;;;;;1.17;0.50;;;20.00;81.10;;;;;;5093647;28;20233;-80
2022/09/17 07:43:54;;;;;;;0.70;0.70;;;20.00;81.70;;;;;;5093942;28;20705;-79
2022/09/17 07:46:25;;;;;;;1.08;0.50;;;19.90;82.30;;;;;;5093218;28;20213;-80
2022/09/17 07:48:56;;;;;;;0.30;0.30;;;19.80;84.30;;;;;;5086079;28;20282;-79
2022/09/17 07:51:28;;;;;;;1.60;0.50;;;19.70;83.40;;;;;;5072281;28;20200;-80
2022/09/17 07:54:02;;;;;;;1.27;0.65;;;19.70;84.00;;;;;;5093324;28;20201;-80
2022/09/17 07:56:33;;;;;;;1.38;0.63;;;19.50;83.50;;;;;;5073068;28;20269;-79
2022/09/17 07:59:05;;;;;;;1.30;0.63;;;19.30;84.70;;;;;;5072630;28;20649;-80
2022/09/17 08:01:36;;;;;;;1.27;0.52;;;19.30;86.00;;;;;;5072876;28;20223;-80
2022/09/17 08:04:07;;;;;;;1.73;0.70;;;19.30;88.90;;;;;;5072760;28;20199;-80
2022/09/17 08:06:40;;;;;;;0.65;0.47;;;19.30;90.00;;;;;;5073090;28;20669;-78
2022/09/17 08:09:14;;;;;;;1.48;0.70;;;19.20;90.80;;;;;;5078333;28;20619;-80
2022/09/17 08:11:45;;;;;;;1.10;0.55;;;19.10;91.70;;;;;;5071861;28;20222;-79
2022/09/17 08:14:17;;;;;;;0.88;0.40;;;19.10;92.70;;;;;;5072649;28;20196;-79
2022/09/17 08:16:47;;;;;;;1.85;0.80;;;19.00;94.70;;;;;;5081021;28;20654;-79
2022/09/17 08:19:19;;;;;;;0.93;0.50;;;19.10;95.80;;;;;;5072628;28;20238;-80
2022/09/17 08:21:49;;;;;;;3.00;0.60;;;19.10;96.80;;;;;;5072480;28;20255;-79
2022/09/17 08:24:22;;;;;;;1.65;0.60;;;19.00;96.90;;;;;;5089735;28;20199;-79
2022/09/17 08:26:53;;;;;;;1.60;0.85;;;18.90;97.30;;;;;;5072258;28;20245;-79
2022/09/17 08:29:23;;;;;;;1.67;0.80;;;18.90;97.30;;;;;;5089053;28;20221;-80
2022/09/17 08:31:54;;;;;;;2.08;0.60;;;18.70;97.50;;;;;;5089422;28;20200;-82
2022/09/17 08:34:25;;;;;;;1.73;0.80;;;18.80;99.50;;;;;;5084693;28;20625;-81
2022/09/17 08:36:56;;;;;;;1.60;0.90;;;18.70;99.90;;;;;;5092218;28;20195;-81
2022/09/17 08:39:29;;;;;;;1.35;0.80;;;18.70;99.90;;;;;;5089027;28;20208;-82
2022/09/17 08:42:10;;;;;;;2.50;1.10;;;18.60;99.90;;;;;;5081023;28;20763;-80
2022/09/17 08:44:44;;;;;;;2.17;1.13;;;18.60;99.90;;;;;;5090134;28;20199;-80
2022/09/17 08:47:22;;;;;;;2.95;0.95;;;18.70;99.90;;;;;;5077517;28;20198;-80
2022/09/17 08:49:56;;;;;;;1.10;0.75;;;18.60;99.90;;;;;;5081386;28;20200;-81
2022/09/17 08:53:03;;;;;;;1.42;0.80;;;18.60;99.90;;;;;;5071773;28;20253;-80
2022/09/17 08:55:44;;;;;;;3.55;0.82;;;18.60;99.90;;;;;;5038502;28;20298;-81
2022/09/17 08:58:41;;;;;;;2.08;1.00;;;18.60;99.90;;;;;;5072163;28;20222;-80
2022/09/17 09:01:23;;;;;;;2.15;0.90;;;18.60;99.90;;;;;;5073274;28;20215;-80
2022/09/17 09:04:51;;;;;;;3.05;1.23;;;18.60;99.90;;;;;;5080492;28;20742;-79
2022/09/17 09:07:25;;;;;;;3.35;1.52;;;18.50;99.90;;;;;;5038465;28;20521;-79
2022/09/17 09:10:06;;;;;;;3.25;0.88;;;18.40;99.90;;;;;;5091240;28;20206;-79
2022/09/17 09:12:41;;;;;;;1.63;0.90;;;18.40;99.90;;;;;;5091449;28;20256;-80
2022/09/17 09:15:28;;;;;;;3.25;1.10;;;18.40;99.90;;;;;;5073706;28;20227;-79
2022/09/17 09:18:06;;;;;;;1.77;0.80;;;18.40;99.90;;;;;;5070818;28;20207;-80
2022/09/17 09:20:47;;;;;;;2.45;1.10;;;18.40;99.90;;;;;;5084278;28;20738;-80
2022/09/17 09:23:21;;;;;;;2.38;1.02;;;18.30;99.90;;;;;;5084818;28;20200;-80
2022/09/17 09:25:59;;;;;;;2.35;0.70;;;18.30;99.90;;;;;;5071102;28;20655;-80
2022/09/17 09:28:57;;;;;;;3.20;1.10;;;18.30;99.90;;;;;;5071109;28;20195;-81
2022/09/17 09:31:39;;;;;;;2.13;1.00;;;18.20;99.90;;;;;;5079377;28;20211;-81
2022/09/17 09:34:10;;;;;;;2.42;1.05;;;18.30;99.90;;;;;;5071546;28;20196;-78
2022/09/17 09:36:41;;;;;;;3.17;0.93;;;18.20;99.90;;;;;;5083178;28;20658;-79
2022/09/17 09:39:20;;;;;;;2.33;1.00;;;18.30;99.90;;;;;;5091410;28;20202;-80
2022/09/17 09:41:54;;;;;;;1.75;0.88;;;18.30;99.90;;;;;;5083655;28;20233;-81
2022/09/17 09:44:28;;;;;;;1.95;0.82;;;18.30;99.90;;;;;;5091514;28;20199;-80
2022/09/17 09:47:19;;;;;;;2.85;1.10;;;18.20;99.90;;;;;;5091256;28;20199;-81
2022/09/17 09:50:01;;;;;;;2.70;1.23;;;18.20;99.90;;;;;;5071207;28;20265;-81
2022/09/17 09:52:47;;;;;;;2.80;1.13;;;18.20;99.90;;;;;;5081325;28;20256;-81
2022/09/17 09:55:35;;;;;;;1.83;0.90;;;18.10;99.90;;;;;;5080307;28;20197;-83
2022/09/17 09:58:13;;;;;;;2.17;1.17;;;18.10;99.90;;;;;;5079497;28;20324;-82
2022/09/17 10:00:46;;;;;;;2.28;1.15;;;18.10;99.90;;;;;;5083677;28;20420;-81
2022/09/17 10:03:21;;;;;;;2.67;1.20;;;18.10;99.90;;;;;;5090259;28;20192;-81
2022/09/17 10:05:58;;;;;;;2.90;1.30;;;18.00;99.90;;;;;;5075118;28;20203;-81
2022/09/17 10:08:30;;;;;;;1.83;1.10;;;18.00;99.90;;;;;;5072736;28;21961;-80
2022/09/17 10:11:02;;;;;;;3.33;1.23;;;18.00;99.90;;;;;;5082406;28;20385;-80
2022/09/17 10:13:35;;;;;;;2.90;1.20;;;17.90;99.90;;;;;;5090378;28;20199;-80
2022/09/17 10:16:23;;;;;;;3.17;1.40;;;18.00;99.90;;;;;;5089947;28;20207;-80
2022/09/17 10:19:23;;;;;;;1.98;1.10;;;17.90;99.90;;;;;;5090624;28;20218;-80
2022/09/17 10:21:54;;;;;;;3.33;1.10;;;17.80;99.90;;;;;;5084455;28;20593;-81
2022/09/17 10:24:27;;;;;;;3.38;1.20;;;17.80;99.90;;;;;;5090540;28;20195;-80
2022/09/17 10:27:05;;;;;;;4.18;1.10;;;17.80;99.90;;;;;;5090183;28;20199;-80
2022/09/17 10:29:38;;;;;;;1.60;0.95;;;17.80;99.90;;;;;;5090631;28;20680;-80
2022/09/17 10:32:18;;;;;;;2.83;1.27;;;17.80;99.90;;;;;;5090437;28;20680;-80
2022/09/17 10:35:03;;;;;;;1.83;1.10;;;17.80;99.90;;;;;;5091302;28;20252;-81
2022/09/17 10:37:46;;;;;;;3.25;1.60;;;17.80;99.90;;;;;;5090017;28;20191;-79
2022/09/17 10:40:31;;;;;;;2.20;0.90;;;17.80;99.90;;;;;;5070644;28;20210;-81
2022/09/17 10:43:28;;;;;;;2.58;1.23;;;17.70;99.90;;;;;;5070056;28;20660;-81
2022/09/17 10:46:01;;;;;;;2.58;1.10;;;17.80;99.90;;;;;;5037460;28;20196;-80
2022/09/17 10:48:39;;;;;;;4.32;1.02;;;17.70;99.90;;;;;;5074420;28;20199;-80
2022/09/17 10:51:11;;;;;;;2.00;0.90;;;17.80;99.90;;;;;;5083344;28;20191;-81
2022/09/17 10:54:14;;;;;;;1.77;0.90;;;17.70;99.90;;;;;;5092716;28;20191;-81
2022/09/17 10:56:58;;;;;;;3.33;0.82;;;17.70;99.90;;;;;;5093912;28;20229;-80
2022/09/17 11:00:12;;;;;;;0.93;0.82;;;17.70;99.90;;;;;;5094050;28;20261;-82
2022/09/17 11:03:28;;;;;;;1.67;0.93;;;17.70;99.90;;;;;;5084186;28;20251;-81
2022/09/17 11:06:23;;;;;;;2.70;0.90;;;17.70;99.90;;;;;;5019824;28;20245;-79
2022/09/17 11:09:04;;;;;;;1.50;0.88;;;17.70;99.90;;;;;;5076481;28;20195;-80
2022/09/17 11:11:46;;;;;;;2.00;0.80;;;17.60;99.90;;;;;;5093734;28;20195;-79
2022/09/17 11:14:34;;;;;;;2.78;0.90;;;17.60;99.90;;;;;;5075284;28;20619;-79
2022/09/17 11:17:14;;;;;;;1.75;0.93;;;17.60;99.90;;;;;;5073561;28;20200;-79
2022/09/17 11:19:56;;;;;;;2.03;0.80;;;17.60;99.90;;;;;;5075199;28;20206;-78
2022/09/17 11:22:45;;;;;;;2.00;0.80;;;17.50;99.90;;;;;;5081296;28;20326;-80
2022/09/17 11:25:29;;;;;;;1.92;0.90;;;17.50;99.90;;;;;;5073121;28;20199;-79
2022/09/17 11:28:12;;;;;;;2.28;0.70;;;17.50;99.90;;;;;;5088510;28;20199;-80
2022/09/17 11:30:55;;;;;;;3.05;0.75;;;17.50;99.90;;;;;;5079601;28;20211;-80
2022/09/17 11:33:55;;;;;;;2.30;0.90;;;17.40;99.90;;;;;;5074238;28;20200;-80
2022/09/17 11:36:30;;;;;;;3.00;0.88;;;17.40;99.90;;;;;;5068708;28;20196;-79
2022/09/17 11:39:12;;;;;;;1.20;0.70;;;17.30;99.90;;;;;;5073397;28;20253;-80
2022/09/17 11:41:48;;;;;;;1.10;0.70;;;17.30;99.90;;;;;;5091677;28;20226;-79
2022/09/17 11:44:24;;;;;;;2.17;0.80;;;17.30;99.90;;;;;;5093157;28;20187;-79
2022/09/17 11:46:59;;;;;;;2.30;0.60;;;17.30;99.90;;;;;;5087144;28;20575;-79
2022/09/17 11:49:53;;;;;;;2.35;0.80;;;17.40;99.90;;;;;;5105584;28;20202;-80
2022/09/17 11:52:34;;;;;;;1.80;0.77;;;17.40;99.90;;;;;;5102623;28;20196;-79
2022/09/17 11:55:20;;;;;;;1.95;0.90;;;17.40;99.90;;;;;;5099286;28;20191;-79
2022/09/17 11:57:53;;;;;;;1.23;0.70;;;17.40;99.90;;;;;;5092798;28;20255;-78
2022/09/17 12:00:24;;;;;;;3.38;0.88;;;17.40;99.90;;;;;;5097262;28;20238;-78
2022/09/17 12:02:59;;;;;;;1.27;0.65;;;17.40;99.90;;;;;;5097418;28;20231;-78
2022/09/17 12:05:37;;;;;;;2.25;0.80;;;17.40;99.90;;;;;;5098361;28;20282;-79
2022/09/17 12:08:17;;;;;;;1.02;0.80;;;17.30;99.90;;;;;;5087083;28;20198;-79
2022/09/17 12:10:55;;;;;;;1.58;0.70;;;17.30;99.90;;;;;;5081297;28;20761;-78
2022/09/17 12:13:43;;;;;;;3.03;0.70;;;17.20;99.90;;;;;;5085724;28;20203;-79
2022/09/17 12:16:20;;;;;;;2.42;0.63;;;17.20;99.90;;;;;;5101202;28;20210;-78
2022/09/17 12:19:06;;;;;;;1.00;0.70;;;17.10;99.90;;;;;;5099159;28;20287;-79
2022/09/17 12:21:55;;;;;;;1.85;0.75;;;17.10;99.90;;;;;;5085420;28;20204;-80
2022/09/17 12:24:30;;;;;;;2.00;0.73;;;17.10;99.90;;;;;;5088325;28;20195;-79
2022/09/17 12:27:17;;;;;;;1.42;0.73;;;17.10;99.90;;;;;;5098804;28;20194;-76
2022/09/17 12:30:17;;;;;;;1.60;0.80;;;17.10;99.90;;;;;;5085183;28;20208;-79
2022/09/17 12:33:09;;;;;;;1.45;0.80;;;17.10;99.90;;;;;;5092930;28;20199;-79
2022/09/17 12:36:02;;;;;;;1.52;0.70;;;17.10;99.90;;;;;;5078953;28;20662;-79
2022/09/17 12:38:50;;;;;;;2.65;0.77;;;17.10;99.90;;;;;;5090778;28;20650;-80
2022/09/17 12:41:28;;;;;;;1.98;0.70;;;17.10;99.90;;;;;;5097345;28;20195;-79
2022/09/17 12:44:19;;;;;;;1.63;0.70;;;17.00;99.90;;;;;;5098091;28;20222;-79
2022/09/17 12:47:14;;;;;;;1.13;0.50;;;17.00;99.90;;;;;;5096788;28;20218;-78
2022/09/17 12:50:07;;;;;;;0.90;0.60;;;17.10;99.90;;;;;;5079408;28;20245;-87
2022/09/17 12:52:52;;;;;;;1.15;0.60;;;17.10;99.90;;;;;;5079725;28;20203;-89
2022/09/17 12:55:35;;;;;;;1.08;0.50;;;17.00;99.90;;;;;;5090195;28;20199;-78
2022/09/17 12:58:19;;;;;;;1.05;0.50;;;17.00;99.90;;;;;;5097858;28;20203;-80
2022/09/17 13:00:59;;;;;;;1.73;0.60;;;17.00;99.90;;;;;;5097579;28;20223;-80
2022/09/17 13:03:35;;;;;;;1.20;0.70;;;17.00;99.90;;;;;;5096780;28;20223;-80
2022/09/17 13:06:46;;;;;;;2.00;0.70;;;17.10;99.90;;;;;;5079002;28;20184;-81
2022/09/17 13:09:56;;;;;;;2.42;0.77;;;17.10;99.90;;;;;;5063816;28;20199;-81
2022/09/17 13:12:37;;;;;;;2.22;0.82;;;17.10;99.90;;;;;;5059143;28;20208;-80
2022/09/17 13:15:45;;;;;;;1.50;0.60;;;17.10;99.90;;;;;;5074051;28;20196;-80
2022/09/17 13:18:25;;;;;;;4.68;0.80;;;17.10;99.90;;;;;;5090333;28;20713;-81
2022/09/17 13:21:05;;;;;;;1.15;0.55;;;17.20;99.90;;;;;;5106333;28;20257;-81
2022/09/17 13:23:39;;;;;;;4.88;0.90;;;17.10;99.90;;;;;;5071999;28;20231;-80
2022/09/17 13:26:12;;;;;;;2.53;0.70;;;17.10;99.90;;;;;;5078927;28;20687;-80
2022/09/17 13:28:45;;;;;;;1.88;0.52;;;17.10;99.90;;;;;;5086398;28;20330;-81
2022/09/17 13:31:21;;;;;;;1.45;0.75;;;17.00;99.90;;;;;;5078691;28;20199;-77
2022/09/17 13:33:58;;;;;;;1.92;0.63;;;17.10;99.90;;;;;;5091490;28;20209;-78
2022/09/17 13:36:44;;;;;;;2.97;0.70;;;17.00;99.90;;;;;;5091510;28;20199;-78
2022/09/17 13:39:41;;;;;;;1.58;0.70;;;17.00;99.90;;;;;;5090407;28;20286;-78